sensor_id;sensor_type;location;lat;lon;timestamp;P1;durP1;ratioP1;P2;durP2;ratioP2
31836;SDS011;18401;49.344;6.240;2024-03-25T00:01:54;12.40;;;3.47;;
31836;SDS011;18401;49.344;6.240;2024-03-25T00:04:20;5.65;;;3.10;;
31836;SDS011;18401;49.344;6.240;2024-03-25T00:06:47;6.75;;;3.55;;
31836;SDS011;18401;49.344;6.240;2024-03-25T00:09:14;12.55;;;4.18;;
31836;SDS011;18401;49.344;6.240;2024-03-25T00:11:42;8.15;;;3.58;;
31836;SDS011;18401;49.344;6.240;2024-03-25T00:14:08;7.07;;;3.05;;
31836;SDS011;18401;49.344;6.240;2024-03-25T00:16:34;10.23;;;3.10;;
31836;SDS011;18401;49.344;6.240;2024-03-25T00:19:00;7.30;;;3.67;;
31836;SDS011;18401;49.344;6.240;2024-03-25T00:21:26;8.93;;;3.60;;
31836;SDS011;18401;49.344;6.240;2024-03-25T00:23:52;11.80;;;3.90;;
31836;SDS011;18401;49.344;6.240;2024-03-25T00:26:18;10.07;;;3.70;;
31836;SDS011;18401;49.344;6.240;2024-03-25T00:28:43;6.30;;;3.25;;
31836;SDS011;18401;49.344;6.240;2024-03-25T00:31:09;8.27;;;3.67;;
31836;SDS011;18401;49.344;6.240;2024-03-25T00:33:34;9.02;;;3.50;;
31836;SDS011;18401;49.344;6.240;2024-03-25T00:36:00;7.55;;;4.03;;
31836;SDS011;18401;49.344;6.240;2024-03-25T00:38:26;6.32;;;3.63;;
31836;SDS011;18401;49.344;6.240;2024-03-25T00:40:52;13.32;;;3.90;;
31836;SDS011;18401;49.344;6.240;2024-03-25T00:43:18;14.48;;;4.28;;
31836;SDS011;18401;49.344;6.240;2024-03-25T00:45:44;10.70;;;3.60;;
31836;SDS011;18401;49.344;6.240;2024-03-25T00:48:10;9.27;;;4.13;;
31836;SDS011;18401;49.344;6.240;2024-03-25T00:50:36;13.07;;;3.85;;
31836;SDS011;18401;49.344;6.240;2024-03-25T00:53:02;12.52;;;4.22;;
31836;SDS011;18401;49.344;6.240;2024-03-25T00:55:28;15.75;;;4.65;;
31836;SDS011;18401;49.344;6.240;2024-03-25T00:57:54;10.77;;;4.05;;
31836;SDS011;18401;49.344;6.240;2024-03-25T01:00:20;14.07;;;3.55;;
31836;SDS011;18401;49.344;6.240;2024-03-25T01:02:45;15.20;;;3.83;;
31836;SDS011;18401;49.344;6.240;2024-03-25T01:05:11;10.82;;;3.63;;
31836;SDS011;18401;49.344;6.240;2024-03-25T01:07:37;9.00;;;3.65;;
31836;SDS011;18401;49.344;6.240;2024-03-25T01:10:04;8.38;;;4.05;;
31836;SDS011;18401;49.344;6.240;2024-03-25T01:12:31;14.55;;;3.95;;
31836;SDS011;18401;49.344;6.240;2024-03-25T01:14:56;11.88;;;4.38;;
31836;SDS011;18401;49.344;6.240;2024-03-25T01:17:22;8.10;;;3.60;;
31836;SDS011;18401;49.344;6.240;2024-03-25T01:19:48;17.95;;;4.25;;
31836;SDS011;18401;49.344;6.240;2024-03-25T01:22:14;9.55;;;4.68;;
31836;SDS011;18401;49.344;6.240;2024-03-25T01:24:39;15.18;;;4.47;;
31836;SDS011;18401;49.344;6.240;2024-03-25T01:27:05;10.00;;;4.13;;
31836;SDS011;18401;49.344;6.240;2024-03-25T01:29:31;10.13;;;3.85;;
31836;SDS011;18401;49.344;6.240;2024-03-25T01:31:57;9.90;;;3.97;;
31836;SDS011;18401;49.344;6.240;2024-03-25T01:34:24;9.45;;;4.15;;
31836;SDS011;18401;49.344;6.240;2024-03-25T01:36:52;8.57;;;4.15;;
31836;SDS011;18401;49.344;6.240;2024-03-25T01:39:18;12.80;;;4.43;;
31836;SDS011;18401;49.344;6.240;2024-03-25T01:41:44;11.43;;;4.38;;
31836;SDS011;18401;49.344;6.240;2024-03-25T01:44:10;9.25;;;3.63;;
31836;SDS011;18401;49.344;6.240;2024-03-25T01:46:36;17.33;;;4.40;;
31836;SDS011;18401;49.344;6.240;2024-03-25T01:49:02;15.43;;;4.95;;
31836;SDS011;18401;49.344;6.240;2024-03-25T01:51:29;10.27;;;4.53;;
31836;SDS011;18401;49.344;6.240;2024-03-25T01:53:55;14.02;;;5.47;;
31836;SDS011;18401;49.344;6.240;2024-03-25T01:56:24;9.13;;;3.75;;
31836;SDS011;18401;49.344;6.240;2024-03-25T01:58:50;7.68;;;4.18;;
31836;SDS011;18401;49.344;6.240;2024-03-25T02:01:15;11.45;;;4.30;;
31836;SDS011;18401;49.344;6.240;2024-03-25T02:03:42;10.77;;;4.65;;
31836;SDS011;18401;49.344;6.240;2024-03-25T02:06:15;17.50;;;4.18;;
31836;SDS011;18401;49.344;6.240;2024-03-25T02:08:43;21.65;;;4.93;;
31836;SDS011;18401;49.344;6.240;2024-03-25T02:11:09;8.63;;;4.28;;
31836;SDS011;18401;49.344;6.240;2024-03-25T02:13:37;9.40;;;4.13;;
31836;SDS011;18401;49.344;6.240;2024-03-25T02:16:03;9.60;;;3.72;;
31836;SDS011;18401;49.344;6.240;2024-03-25T02:18:29;10.13;;;4.03;;
31836;SDS011;18401;49.344;6.240;2024-03-25T02:20:56;7.95;;;3.70;;
31836;SDS011;18401;49.344;6.240;2024-03-25T02:23:22;14.55;;;4.85;;
31836;SDS011;18401;49.344;6.240;2024-03-25T02:25:51;11.43;;;5.00;;
31836;SDS011;18401;49.344;6.240;2024-03-25T02:28:18;17.80;;;4.05;;
31836;SDS011;18401;49.344;6.240;2024-03-25T02:30:44;11.57;;;4.35;;
31836;SDS011;18401;49.344;6.240;2024-03-25T02:33:10;13.40;;;4.95;;
31836;SDS011;18401;49.344;6.240;2024-03-25T02:35:35;14.85;;;4.60;;
31836;SDS011;18401;49.344;6.240;2024-03-25T02:38:02;16.45;;;4.75;;
31836;SDS011;18401;49.344;6.240;2024-03-25T02:40:28;13.02;;;4.80;;
31836;SDS011;18401;49.344;6.240;2024-03-25T02:42:54;12.65;;;4.80;;
31836;SDS011;18401;49.344;6.240;2024-03-25T02:45:20;16.02;;;5.22;;
31836;SDS011;18401;49.344;6.240;2024-03-25T02:47:46;9.52;;;5.07;;
31836;SDS011;18401;49.344;6.240;2024-03-25T02:50:12;10.73;;;4.85;;
31836;SDS011;18401;49.344;6.240;2024-03-25T02:52:38;15.65;;;5.20;;
31836;SDS011;18401;49.344;6.240;2024-03-25T02:55:03;13.70;;;4.53;;
31836;SDS011;18401;49.344;6.240;2024-03-25T02:57:29;13.40;;;4.78;;
31836;SDS011;18401;49.344;6.240;2024-03-25T02:59:55;16.52;;;5.28;;
31836;SDS011;18401;49.344;6.240;2024-03-25T03:02:20;10.50;;;5.18;;
31836;SDS011;18401;49.344;6.240;2024-03-25T03:04:46;16.45;;;5.65;;
31836;SDS011;18401;49.344;6.240;2024-03-25T03:07:12;15.05;;;5.32;;
31836;SDS011;18401;49.344;6.240;2024-03-25T03:09:37;12.52;;;5.30;;
31836;SDS011;18401;49.344;6.240;2024-03-25T03:12:03;21.83;;;5.72;;
31836;SDS011;18401;49.344;6.240;2024-03-25T03:14:29;13.05;;;5.32;;
31836;SDS011;18401;49.344;6.240;2024-03-25T03:16:54;14.93;;;5.28;;
31836;SDS011;18401;49.344;6.240;2024-03-25T03:19:26;12.57;;;5.05;;
31836;SDS011;18401;49.344;6.240;2024-03-25T03:21:52;11.40;;;5.30;;
31836;SDS011;18401;49.344;6.240;2024-03-25T03:24:18;13.90;;;6.00;;
31836;SDS011;18401;49.344;6.240;2024-03-25T03:26:44;13.57;;;5.50;;
31836;SDS011;18401;49.344;6.240;2024-03-25T03:29:10;16.42;;;5.15;;
31836;SDS011;18401;49.344;6.240;2024-03-25T03:31:36;14.82;;;5.15;;
31836;SDS011;18401;49.344;6.240;2024-03-25T03:34:01;14.88;;;5.32;;
31836;SDS011;18401;49.344;6.240;2024-03-25T03:36:27;23.00;;;5.88;;
31836;SDS011;18401;49.344;6.240;2024-03-25T03:38:53;11.50;;;5.07;;
31836;SDS011;18401;49.344;6.240;2024-03-25T03:41:19;17.17;;;5.93;;
31836;SDS011;18401;49.344;6.240;2024-03-25T03:43:44;14.98;;;4.53;;
31836;SDS011;18401;49.344;6.240;2024-03-25T03:46:10;13.35;;;5.10;;
31836;SDS011;18401;49.344;6.240;2024-03-25T03:48:36;11.80;;;4.90;;
31836;SDS011;18401;49.344;6.240;2024-03-25T03:51:03;14.38;;;5.13;;
31836;SDS011;18401;49.344;6.240;2024-03-25T03:53:31;13.13;;;4.88;;
31836;SDS011;18401;49.344;6.240;2024-03-25T03:55:58;14.65;;;5.00;;
31836;SDS011;18401;49.344;6.240;2024-03-25T03:58:26;14.15;;;4.97;;
31836;SDS011;18401;49.344;6.240;2024-03-25T04:00:52;15.90;;;5.30;;
31836;SDS011;18401;49.344;6.240;2024-03-25T04:03:18;13.68;;;4.88;;
31836;SDS011;18401;49.344;6.240;2024-03-25T04:05:44;10.63;;;4.60;;
31836;SDS011;18401;49.344;6.240;2024-03-25T04:08:10;16.45;;;5.25;;
31836;SDS011;18401;49.344;6.240;2024-03-25T04:10:35;13.85;;;4.97;;
31836;SDS011;18401;49.344;6.240;2024-03-25T04:13:01;11.52;;;5.20;;
31836;SDS011;18401;49.344;6.240;2024-03-25T04:15:28;14.60;;;4.70;;
31836;SDS011;18401;49.344;6.240;2024-03-25T04:17:54;11.35;;;4.82;;
31836;SDS011;18401;49.344;6.240;2024-03-25T04:20:20;17.80;;;4.53;;
31836;SDS011;18401;49.344;6.240;2024-03-25T04:22:46;12.02;;;5.32;;
31836;SDS011;18401;49.344;6.240;2024-03-25T04:25:12;10.82;;;5.03;;
31836;SDS011;18401;49.344;6.240;2024-03-25T04:27:42;9.27;;;5.00;;
31836;SDS011;18401;49.344;6.240;2024-03-25T04:30:08;14.80;;;4.88;;
31836;SDS011;18401;49.344;6.240;2024-03-25T04:32:36;8.50;;;4.35;;
31836;SDS011;18401;49.344;6.240;2024-03-25T04:35:02;9.38;;;4.30;;
31836;SDS011;18401;49.344;6.240;2024-03-25T04:37:29;10.90;;;4.25;;
31836;SDS011;18401;49.344;6.240;2024-03-25T04:39:55;10.45;;;4.55;;
31836;SDS011;18401;49.344;6.240;2024-03-25T04:42:21;18.88;;;6.00;;
31836;SDS011;18401;49.344;6.240;2024-03-25T04:44:47;13.73;;;5.25;;
31836;SDS011;18401;49.344;6.240;2024-03-25T04:47:13;16.05;;;5.20;;
31836;SDS011;18401;49.344;6.240;2024-03-25T04:49:40;12.98;;;5.35;;
31836;SDS011;18401;49.344;6.240;2024-03-25T04:52:06;14.13;;;6.00;;
31836;SDS011;18401;49.344;6.240;2024-03-25T04:54:32;17.92;;;6.32;;
31836;SDS011;18401;49.344;6.240;2024-03-25T04:56:58;8.45;;;5.28;;
31836;SDS011;18401;49.344;6.240;2024-03-25T04:59:23;11.35;;;4.68;;
31836;SDS011;18401;49.344;6.240;2024-03-25T05:01:49;9.32;;;4.75;;
31836;SDS011;18401;49.344;6.240;2024-03-25T05:04:15;15.00;;;4.85;;
31836;SDS011;18401;49.344;6.240;2024-03-25T05:06:40;16.48;;;5.22;;
31836;SDS011;18401;49.344;6.240;2024-03-25T05:09:06;12.00;;;5.38;;
31836;SDS011;18401;49.344;6.240;2024-03-25T05:11:32;15.57;;;5.70;;
31836;SDS011;18401;49.344;6.240;2024-03-25T05:13:58;16.92;;;5.68;;
31836;SDS011;18401;49.344;6.240;2024-03-25T05:16:24;9.57;;;4.97;;
31836;SDS011;18401;49.344;6.240;2024-03-25T05:18:50;10.07;;;4.85;;
31836;SDS011;18401;49.344;6.240;2024-03-25T05:21:16;13.73;;;5.55;;
31836;SDS011;18401;49.344;6.240;2024-03-25T05:23:41;10.57;;;4.43;;
31836;SDS011;18401;49.344;6.240;2024-03-25T05:26:07;21.73;;;4.70;;
31836;SDS011;18401;49.344;6.240;2024-03-25T05:28:33;12.68;;;5.15;;
31836;SDS011;18401;49.344;6.240;2024-03-25T05:31:08;15.25;;;6.07;;
31836;SDS011;18401;49.344;6.240;2024-03-25T05:35:59;17.77;;;6.47;;
31836;SDS011;18401;49.344;6.240;2024-03-25T05:38:25;20.55;;;7.20;;
31836;SDS011;18401;49.344;6.240;2024-03-25T05:40:51;17.83;;;6.80;;
31836;SDS011;18401;49.344;6.240;2024-03-25T05:43:17;17.75;;;7.03;;
31836;SDS011;18401;49.344;6.240;2024-03-25T05:45:55;14.73;;;6.22;;
31836;SDS011;18401;49.344;6.240;2024-03-25T05:48:21;15.27;;;6.65;;
31836;SDS011;18401;49.344;6.240;2024-03-25T05:51:05;16.85;;;7.15;;
31836;SDS011;18401;49.344;6.240;2024-03-25T05:53:32;15.77;;;7.18;;
31836;SDS011;18401;49.344;6.240;2024-03-25T05:55:58;13.15;;;6.43;;
31836;SDS011;18401;49.344;6.240;2024-03-25T05:58:27;20.35;;;7.43;;
31836;SDS011;18401;49.344;6.240;2024-03-25T06:00:53;22.92;;;6.72;;
31836;SDS011;18401;49.344;6.240;2024-03-25T06:03:19;18.73;;;7.25;;
31836;SDS011;18401;49.344;6.240;2024-03-25T06:05:45;18.00;;;7.57;;
31836;SDS011;18401;49.344;6.240;2024-03-25T06:08:11;22.73;;;7.80;;
31836;SDS011;18401;49.344;6.240;2024-03-25T06:11:06;16.85;;;6.22;;
31836;SDS011;18401;49.344;6.240;2024-03-25T06:13:32;19.90;;;7.13;;
31836;SDS011;18401;49.344;6.240;2024-03-25T06:15:58;20.67;;;7.20;;
31836;SDS011;18401;49.344;6.240;2024-03-25T06:18:23;14.75;;;6.38;;
31836;SDS011;18401;49.344;6.240;2024-03-25T06:20:49;25.02;;;6.80;;
31836;SDS011;18401;49.344;6.240;2024-03-25T06:23:36;20.13;;;6.18;;
31836;SDS011;18401;49.344;6.240;2024-03-25T06:26:01;16.65;;;6.28;;
31836;SDS011;18401;49.344;6.240;2024-03-25T06:28:27;12.77;;;6.50;;
31836;SDS011;18401;49.344;6.240;2024-03-25T06:30:52;14.65;;;6.38;;
31836;SDS011;18401;49.344;6.240;2024-03-25T06:33:36;9.90;;;5.55;;
31836;SDS011;18401;49.344;6.240;2024-03-25T06:36:21;13.05;;;5.65;;
31836;SDS011;18401;49.344;6.240;2024-03-25T06:38:47;13.93;;;5.80;;
31836;SDS011;18401;49.344;6.240;2024-03-25T06:41:13;12.20;;;5.03;;
31836;SDS011;18401;49.344;6.240;2024-03-25T06:43:38;17.23;;;5.97;;
31836;SDS011;18401;49.344;6.240;2024-03-25T06:46:05;13.70;;;5.78;;
31836;SDS011;18401;49.344;6.240;2024-03-25T06:48:31;16.65;;;5.70;;
31836;SDS011;18401;49.344;6.240;2024-03-25T06:50:58;18.05;;;5.93;;
31836;SDS011;18401;49.344;6.240;2024-03-25T06:53:24;12.02;;;5.68;;
31836;SDS011;18401;49.344;6.240;2024-03-25T06:55:54;13.93;;;5.97;;
31836;SDS011;18401;49.344;6.240;2024-03-25T06:58:21;14.10;;;5.90;;
31836;SDS011;18401;49.344;6.240;2024-03-25T07:00:47;9.77;;;5.38;;
31836;SDS011;18401;49.344;6.240;2024-03-25T07:03:16;15.13;;;5.07;;
31836;SDS011;18401;49.344;6.240;2024-03-25T07:05:45;9.15;;;5.25;;
31836;SDS011;18401;49.344;6.240;2024-03-25T07:08:12;14.73;;;5.72;;
31836;SDS011;18401;49.344;6.240;2024-03-25T07:10:38;10.10;;;5.05;;
31836;SDS011;18401;49.344;6.240;2024-03-25T07:13:06;14.35;;;5.40;;
31836;SDS011;18401;49.344;6.240;2024-03-25T07:15:31;11.30;;;5.38;;
31836;SDS011;18401;49.344;6.240;2024-03-25T07:17:57;17.95;;;5.60;;
31836;SDS011;18401;49.344;6.240;2024-03-25T07:20:23;12.80;;;5.60;;
31836;SDS011;18401;49.344;6.240;2024-03-25T07:22:49;15.25;;;5.93;;
31836;SDS011;18401;49.344;6.240;2024-03-25T07:25:14;11.15;;;5.05;;
31836;SDS011;18401;49.344;6.240;2024-03-25T07:27:40;9.40;;;4.60;;
31836;SDS011;18401;49.344;6.240;2024-03-25T07:30:06;11.68;;;4.93;;
31836;SDS011;18401;49.344;6.240;2024-03-25T07:32:35;10.93;;;5.32;;
31836;SDS011;18401;49.344;6.240;2024-03-25T07:35:00;18.20;;;5.88;;
31836;SDS011;18401;49.344;6.240;2024-03-25T07:37:26;8.18;;;4.97;;
31836;SDS011;18401;49.344;6.240;2024-03-25T07:39:52;22.58;;;5.60;;
31836;SDS011;18401;49.344;6.240;2024-03-25T07:42:17;8.63;;;4.90;;
31836;SDS011;18401;49.344;6.240;2024-03-25T07:44:44;10.05;;;5.28;;
31836;SDS011;18401;49.344;6.240;2024-03-25T07:47:09;10.13;;;4.97;;
31836;SDS011;18401;49.344;6.240;2024-03-25T07:49:35;12.05;;;4.57;;
31836;SDS011;18401;49.344;6.240;2024-03-25T07:52:01;10.95;;;5.20;;
31836;SDS011;18401;49.344;6.240;2024-03-25T07:54:28;10.52;;;4.90;;
31836;SDS011;18401;49.344;6.240;2024-03-25T07:56:54;17.15;;;5.55;;
31836;SDS011;18401;49.344;6.240;2024-03-25T07:59:19;11.15;;;4.75;;
31836;SDS011;18401;49.344;6.240;2024-03-25T08:01:45;10.32;;;4.13;;
31836;SDS011;18401;49.344;6.240;2024-03-25T08:04:11;12.73;;;4.78;;
31836;SDS011;18401;49.344;6.240;2024-03-25T08:06:36;6.82;;;4.13;;
31836;SDS011;18401;49.344;6.240;2024-03-25T08:09:02;12.50;;;4.22;;
31836;SDS011;18401;49.344;6.240;2024-03-25T08:11:31;9.73;;;4.00;;
31836;SDS011;18401;49.344;6.240;2024-03-25T08:13:57;15.50;;;5.57;;
31836;SDS011;18401;49.344;6.240;2024-03-25T08:16:23;11.73;;;4.70;;
31836;SDS011;18401;49.344;6.240;2024-03-25T08:18:48;7.78;;;4.43;;
31836;SDS011;18401;49.344;6.240;2024-03-25T08:21:15;10.32;;;4.70;;
31836;SDS011;18401;49.344;6.240;2024-03-25T08:23:41;10.65;;;4.25;;
31836;SDS011;18401;49.344;6.240;2024-03-25T08:26:09;12.45;;;4.53;;
31836;SDS011;18401;49.344;6.240;2024-03-25T08:28:34;10.30;;;4.45;;
31836;SDS011;18401;49.344;6.240;2024-03-25T08:31:00;12.82;;;4.53;;
31836;SDS011;18401;49.344;6.240;2024-03-25T08:33:26;10.82;;;4.13;;
31836;SDS011;18401;49.344;6.240;2024-03-25T08:35:51;12.30;;;4.30;;
31836;SDS011;18401;49.344;6.240;2024-03-25T08:38:17;9.30;;;4.22;;
31836;SDS011;18401;49.344;6.240;2024-03-25T08:40:43;10.98;;;4.60;;
31836;SDS011;18401;49.344;6.240;2024-03-25T08:43:08;13.30;;;3.88;;
31836;SDS011;18401;49.344;6.240;2024-03-25T08:45:34;14.82;;;4.70;;
31836;SDS011;18401;49.344;6.240;2024-03-25T08:48:00;13.32;;;4.53;;
31836;SDS011;18401;49.344;6.240;2024-03-25T08:50:26;16.83;;;4.05;;
31836;SDS011;18401;49.344;6.240;2024-03-25T08:52:52;13.20;;;4.18;;
31836;SDS011;18401;49.344;6.240;2024-03-25T08:55:17;13.45;;;4.35;;
31836;SDS011;18401;49.344;6.240;2024-03-25T08:57:43;13.52;;;3.60;;
31836;SDS011;18401;49.344;6.240;2024-03-25T09:00:09;22.25;;;4.18;;
31836;SDS011;18401;49.344;6.240;2024-03-25T09:02:36;16.58;;;4.45;;
31836;SDS011;18401;49.344;6.240;2024-03-25T09:05:01;10.35;;;4.40;;
31836;SDS011;18401;49.344;6.240;2024-03-25T09:07:30;10.85;;;3.78;;
31836;SDS011;18401;49.344;6.240;2024-03-25T09:09:56;9.93;;;3.38;;
31836;SDS011;18401;49.344;6.240;2024-03-25T09:12:40;12.93;;;3.58;;
31836;SDS011;18401;49.344;6.240;2024-03-25T09:15:06;14.05;;;3.85;;
31836;SDS011;18401;49.344;6.240;2024-03-25T09:17:32;11.32;;;3.33;;
31836;SDS011;18401;49.344;6.240;2024-03-25T09:19:58;18.17;;;4.13;;
31836;SDS011;18401;49.344;6.240;2024-03-25T09:22:23;11.77;;;4.30;;
31836;SDS011;18401;49.344;6.240;2024-03-25T09:24:49;15.45;;;4.03;;
31836;SDS011;18401;49.344;6.240;2024-03-25T09:27:15;13.05;;;4.05;;
31836;SDS011;18401;49.344;6.240;2024-03-25T09:29:41;13.50;;;3.70;;
31836;SDS011;18401;49.344;6.240;2024-03-25T09:32:07;15.20;;;4.07;;
31836;SDS011;18401;49.344;6.240;2024-03-25T09:34:33;12.27;;;3.45;;
31836;SDS011;18401;49.344;6.240;2024-03-25T09:36:58;12.45;;;2.88;;
31836;SDS011;18401;49.344;6.240;2024-03-25T09:39:24;11.40;;;3.55;;
31836;SDS011;18401;49.344;6.240;2024-03-25T09:41:50;16.70;;;3.78;;
31836;SDS011;18401;49.344;6.240;2024-03-25T09:44:19;10.07;;;3.30;;
31836;SDS011;18401;49.344;6.240;2024-03-25T09:46:49;14.45;;;3.08;;
31836;SDS011;18401;49.344;6.240;2024-03-25T09:49:15;8.85;;;3.22;;
31836;SDS011;18401;49.344;6.240;2024-03-25T09:51:42;8.82;;;2.90;;
31836;SDS011;18401;49.344;6.240;2024-03-25T09:54:08;6.47;;;2.67;;
31836;SDS011;18401;49.344;6.240;2024-03-25T09:56:35;12.32;;;3.30;;
31836;SDS011;18401;49.344;6.240;2024-03-25T09:59:02;7.15;;;2.45;;
31836;SDS011;18401;49.344;6.240;2024-03-25T10:01:28;6.47;;;1.88;;
31836;SDS011;18401;49.344;6.240;2024-03-25T10:03:54;13.05;;;2.50;;
31836;SDS011;18401;49.344;6.240;2024-03-25T10:06:20;6.25;;;2.20;;
31836;SDS011;18401;49.344;6.240;2024-03-25T10:08:46;6.78;;;2.13;;
31836;SDS011;18401;49.344;6.240;2024-03-25T10:11:12;7.20;;;1.90;;
31836;SDS011;18401;49.344;6.240;2024-03-25T10:13:40;7.50;;;2.13;;
31836;SDS011;18401;49.344;6.240;2024-03-25T10:16:06;12.07;;;2.53;;
31836;SDS011;18401;49.344;6.240;2024-03-25T10:18:32;9.10;;;2.50;;
31836;SDS011;18401;49.344;6.240;2024-03-25T10:20:58;6.03;;;2.15;;
31836;SDS011;18401;49.344;6.240;2024-03-25T10:23:24;8.32;;;2.47;;
31836;SDS011;18401;49.344;6.240;2024-03-25T10:25:54;8.88;;;2.15;;
31836;SDS011;18401;49.344;6.240;2024-03-25T10:28:20;10.70;;;2.42;;
31836;SDS011;18401;49.344;6.240;2024-03-25T10:30:46;5.35;;;1.60;;
31836;SDS011;18401;49.344;6.240;2024-03-25T10:33:12;4.00;;;1.75;;
31836;SDS011;18401;49.344;6.240;2024-03-25T10:35:38;10.88;;;2.20;;
31836;SDS011;18401;49.344;6.240;2024-03-25T10:38:05;6.25;;;1.92;;
31836;SDS011;18401;49.344;6.240;2024-03-25T10:40:38;6.93;;;1.40;;
31836;SDS011;18401;49.344;6.240;2024-03-25T10:43:05;9.88;;;2.15;;
31836;SDS011;18401;49.344;6.240;2024-03-25T10:45:40;6.78;;;1.50;;
31836;SDS011;18401;49.344;6.240;2024-03-25T10:50:33;3.53;;;1.08;;
31836;SDS011;18401;49.344;6.240;2024-03-25T10:53:01;2.75;;;1.60;;
31836;SDS011;18401;49.344;6.240;2024-03-25T10:55:29;5.45;;;2.25;;
31836;SDS011;18401;49.344;6.240;2024-03-25T10:57:58;3.95;;;1.50;;
31836;SDS011;18401;49.344;6.240;2024-03-25T11:00:25;5.50;;;1.38;;
31836;SDS011;18401;49.344;6.240;2024-03-25T11:02:50;3.17;;;1.85;;
31836;SDS011;18401;49.344;6.240;2024-03-25T11:05:18;4.75;;;1.90;;
31836;SDS011;18401;49.344;6.240;2024-03-25T11:07:44;2.65;;;1.75;;
31836;SDS011;18401;49.344;6.240;2024-03-25T11:10:11;6.10;;;1.80;;
31836;SDS011;18401;49.344;6.240;2024-03-25T11:12:37;7.10;;;1.80;;
31836;SDS011;18401;49.344;6.240;2024-03-25T11:15:05;3.05;;;1.80;;
31836;SDS011;18401;49.344;6.240;2024-03-25T11:17:34;6.60;;;1.67;;
31836;SDS011;18401;49.344;6.240;2024-03-25T11:20:14;4.25;;;1.45;;
31836;SDS011;18401;49.344;6.240;2024-03-25T11:22:50;3.85;;;1.52;;
31836;SDS011;18401;49.344;6.240;2024-03-25T11:25:17;4.25;;;1.58;;
31836;SDS011;18401;49.344;6.240;2024-03-25T11:27:44;3.17;;;1.48;;
31836;SDS011;18401;49.344;6.240;2024-03-25T11:30:13;7.32;;;1.83;;
31836;SDS011;18401;49.344;6.240;2024-03-25T11:32:46;5.65;;;1.70;;
31836;SDS011;18401;49.344;6.240;2024-03-25T11:35:16;3.13;;;1.20;;
31836;SDS011;18401;49.344;6.240;2024-03-25T11:37:42;4.07;;;1.55;;
31836;SDS011;18401;49.344;6.240;2024-03-25T11:40:08;3.67;;;1.27;;
31836;SDS011;18401;49.344;6.240;2024-03-25T11:42:44;4.40;;;1.50;;
31836;SDS011;18401;49.344;6.240;2024-03-25T11:45:14;3.13;;;1.60;;
31836;SDS011;18401;49.344;6.240;2024-03-25T11:47:45;5.15;;;1.30;;
31836;SDS011;18401;49.344;6.240;2024-03-25T11:50:12;3.60;;;1.30;;
31836;SDS011;18401;49.344;6.240;2024-03-25T11:52:40;8.02;;;1.77;;
31836;SDS011;18401;49.344;6.240;2024-03-25T11:55:06;3.03;;;1.20;;
31836;SDS011;18401;49.344;6.240;2024-03-25T11:57:36;1.90;;;1.08;;
31836;SDS011;18401;49.344;6.240;2024-03-25T12:00:03;4.65;;;1.77;;
31836;SDS011;18401;49.344;6.240;2024-03-25T12:02:35;3.30;;;1.10;;
31836;SDS011;18401;49.344;6.240;2024-03-25T12:05:02;2.45;;;1.27;;
31836;SDS011;18401;49.344;6.240;2024-03-25T12:07:30;2.72;;;1.45;;
31836;SDS011;18401;49.344;6.240;2024-03-25T12:09:57;5.18;;;1.27;;
31836;SDS011;18401;49.344;6.240;2024-03-25T12:12:41;3.42;;;1.20;;
31836;SDS011;18401;49.344;6.240;2024-03-25T12:15:08;2.72;;;1.33;;
31836;SDS011;18401;49.344;6.240;2024-03-25T12:17:34;7.15;;;1.55;;
31836;SDS011;18401;49.344;6.240;2024-03-25T12:20:04;7.38;;;1.52;;
31836;SDS011;18401;49.344;6.240;2024-03-25T12:22:31;4.40;;;1.20;;
31836;SDS011;18401;49.344;6.240;2024-03-25T12:25:00;3.25;;;1.30;;
31836;SDS011;18401;49.344;6.240;2024-03-25T12:27:31;2.30;;;1.00;;
31836;SDS011;18401;49.344;6.240;2024-03-25T12:30:07;2.17;;;1.20;;
31836;SDS011;18401;49.344;6.240;2024-03-25T12:35:03;4.70;;;1.25;;
31836;SDS011;18401;49.344;6.240;2024-03-25T12:37:39;3.25;;;1.10;;
31836;SDS011;18401;49.344;6.240;2024-03-25T12:40:06;2.00;;;1.00;;
31836;SDS011;18401;49.344;6.240;2024-03-25T12:42:33;4.80;;;1.30;;
31836;SDS011;18401;49.344;6.240;2024-03-25T12:44:59;2.47;;;1.15;;
31836;SDS011;18401;49.344;6.240;2024-03-25T12:47:25;4.50;;;1.30;;
31836;SDS011;18401;49.344;6.240;2024-03-25T12:49:50;3.28;;;1.30;;
31836;SDS011;18401;49.344;6.240;2024-03-25T12:52:16;3.53;;;1.10;;
31836;SDS011;18401;49.344;6.240;2024-03-25T12:54:42;1.65;;;1.00;;
31836;SDS011;18401;49.344;6.240;2024-03-25T12:57:08;3.47;;;1.35;;
31836;SDS011;18401;49.344;6.240;2024-03-25T12:59:34;3.47;;;1.35;;
31836;SDS011;18401;49.344;6.240;2024-03-25T13:02:00;3.65;;;1.25;;
31836;SDS011;18401;49.344;6.240;2024-03-25T13:04:25;1.88;;;1.20;;
31836;SDS011;18401;49.344;6.240;2024-03-25T13:06:51;2.95;;;1.25;;
31836;SDS011;18401;49.344;6.240;2024-03-25T13:09:17;4.80;;;1.90;;
31836;SDS011;18401;49.344;6.240;2024-03-25T13:11:43;4.50;;;1.73;;
31836;SDS011;18401;49.344;6.240;2024-03-25T13:14:10;2.67;;;1.20;;
31836;SDS011;18401;49.344;6.240;2024-03-25T13:16:37;1.88;;;1.00;;
31836;SDS011;18401;49.344;6.240;2024-03-25T13:19:06;1.55;;;0.90;;
31836;SDS011;18401;49.344;6.240;2024-03-25T13:21:32;2.45;;;1.13;;
31836;SDS011;18401;49.344;6.240;2024-03-25T13:23:58;5.90;;;1.33;;
31836;SDS011;18401;49.344;6.240;2024-03-25T13:26:24;3.95;;;1.17;;
31836;SDS011;18401;49.344;6.240;2024-03-25T13:28:50;3.28;;;1.17;;
31836;SDS011;18401;49.344;6.240;2024-03-25T13:31:16;3.60;;;1.10;;
31836;SDS011;18401;49.344;6.240;2024-03-25T13:33:42;1.90;;;1.02;;
31836;SDS011;18401;49.344;6.240;2024-03-25T13:36:08;3.03;;;1.35;;
31836;SDS011;18401;49.344;6.240;2024-03-25T13:38:33;3.83;;;1.20;;
31836;SDS011;18401;49.344;6.240;2024-03-25T13:40:59;5.78;;;1.70;;
31836;SDS011;18401;49.344;6.240;2024-03-25T13:43:25;6.38;;;1.67;;
31836;SDS011;18401;49.344;6.240;2024-03-25T13:45:51;5.95;;;1.02;;
31836;SDS011;18401;49.344;6.240;2024-03-25T13:48:17;2.83;;;1.08;;
31836;SDS011;18401;49.344;6.240;2024-03-25T13:50:42;2.22;;;1.25;;
31836;SDS011;18401;49.344;6.240;2024-03-25T13:53:11;6.72;;;1.00;;
31836;SDS011;18401;49.344;6.240;2024-03-25T13:55:36;4.43;;;1.17;;
31836;SDS011;18401;49.344;6.240;2024-03-25T13:58:02;4.60;;;1.08;;
31836;SDS011;18401;49.344;6.240;2024-03-25T14:00:30;1.70;;;0.98;;
31836;SDS011;18401;49.344;6.240;2024-03-25T14:02:56;3.22;;;0.75;;
31836;SDS011;18401;49.344;6.240;2024-03-25T14:05:22;2.83;;;1.35;;
31836;SDS011;18401;49.344;6.240;2024-03-25T14:07:48;2.53;;;0.90;;
31836;SDS011;18401;49.344;6.240;2024-03-25T14:10:14;5.60;;;1.40;;
31836;SDS011;18401;49.344;6.240;2024-03-25T14:12:40;2.13;;;1.08;;
31836;SDS011;18401;49.344;6.240;2024-03-25T14:15:07;4.32;;;1.15;;
31836;SDS011;18401;49.344;6.240;2024-03-25T14:17:33;2.35;;;1.30;;
31836;SDS011;18401;49.344;6.240;2024-03-25T14:20:02;4.80;;;1.35;;
31836;SDS011;18401;49.344;6.240;2024-03-25T14:22:31;4.13;;;1.10;;
31836;SDS011;18401;49.344;6.240;2024-03-25T14:24:57;3.53;;;0.85;;
31836;SDS011;18401;49.344;6.240;2024-03-25T14:27:23;5.65;;;1.58;;
31836;SDS011;18401;49.344;6.240;2024-03-25T14:29:49;4.72;;;1.02;;
31836;SDS011;18401;49.344;6.240;2024-03-25T14:32:15;5.55;;;1.38;;
31836;SDS011;18401;49.344;6.240;2024-03-25T14:34:44;5.25;;;0.93;;
31836;SDS011;18401;49.344;6.240;2024-03-25T14:37:10;3.50;;;0.80;;
31836;SDS011;18401;49.344;6.240;2024-03-25T14:39:35;2.55;;;1.10;;
31836;SDS011;18401;49.344;6.240;2024-03-25T14:42:01;6.13;;;1.10;;
31836;SDS011;18401;49.344;6.240;2024-03-25T14:44:28;1.80;;;0.90;;
31836;SDS011;18401;49.344;6.240;2024-03-25T14:46:54;2.40;;;1.00;;